weather.gov     
National Weather Service

Terminal Aerodrome Forecast
NWS Homepage
This page is being discontinued on March 12, 2014.
The same data is available at this site. Please update your bookmarks.
Thank you, and we apologize for the inconvenience.
Please send an email to SR-SRH.Webmaster@noaa.gov with any concerns.


Current Version
Previous Version:    01  02  03  04  05  06  07  08  09  10  11  12  13  14  15  16  17  18  19  20  21  22  23  
[Printable]
673
FTUS43 KMQT 310500
TAFIWD
TAF
KIWD 310532Z 3106/0106 VRB03KT 1SM BR FEW060
      TEMPO 3106/3108 1/4SM FG SCT002
     FM310800 VRB03KT 1/4SM FG VV002
     FM311400 32008KT P6SM SKC
     FM010100 20003KT P6SM SKC
      AMD NOT SKED=


U.S. Dept. of Commerce
NOAA National Weather Service
1325 East West Highway
Silver Spring, MD 20910
E-mail: w-nws.webmaster@noaa.gov
Page last modified: May 16, 2007
NATIONAL WEATHER SERVICE: for Safety, for Work, for Fun - FOR LIFE